Time;durP1;ratioP1;P1;durP2;ratioP2;P2;SDS_P1;SDS_P2;PMS_P1;PMS_P2;Temp;Humidity;BMP_temperature;BMP_pressure;BME280_temperature;BME280_humidity;BME280_pressure;Samples;Min_cycle;Max_cycle;Signal;HPM_P1;HPM_P2
2021/12/16 00:01:45;;;;;;;126.03;106.10;;;9.60;99.90;;;;;;6152125;23;20137;-89
2021/12/16 00:09:19;;;;;;;118.65;84.18;;;9.50;99.90;;;;;;6162011;23;20222;-89
2021/12/16 00:35:02;;;;;;;121.03;94.20;;;9.50;99.90;;;;;;6140287;23;20150;-89
2021/12/16 00:37:59;;;;;;;123.72;89.65;;;9.60;99.90;;;;;;6125586;23;20243;-90
2021/12/16 00:40:30;;;;;;;122.32;87.15;;;9.60;99.90;;;;;;6125388;23;20157;-89
2021/12/16 00:43:50;;;;;;;121.20;82.00;;;9.60;99.90;;;;;;6151911;23;20173;-89
2021/12/16 00:47:12;;;;;;;119.60;83.35;;;9.60;99.90;;;;;;6091417;23;20189;-90
2021/12/16 00:56:54;;;;;;;130.10;87.13;;;9.60;99.90;;;;;;6151883;23;20661;-89
2021/12/16 00:59:59;;;;;;;120.70;87.18;;;9.50;99.90;;;;;;6125848;23;20154;-89
2021/12/16 01:03:16;;;;;;;121.75;88.22;;;9.50;99.90;;;;;;6130659;23;20499;-89
2021/12/16 01:34:57;;;;;;;122.13;74.53;;;9.50;99.90;;;;;;6152024;23;20137;-89
2021/12/16 01:47:10;;;;;;;116.47;76.97;;;9.50;99.90;;;;;;6151960;23;20660;-90
2021/12/16 01:55:59;;;;;;;113.43;76.95;;;9.40;99.90;;;;;;6152022;23;20165;-89
2021/12/16 01:58:31;;;;;;;126.85;84.22;;;9.40;99.90;;;;;;6125942;23;20207;-89
2021/12/16 02:01:28;;;;;;;119.78;75.78;;;9.40;99.90;;;;;;6127673;23;20162;-90
2021/12/16 02:04:09;;;;;;;127.05;78.45;;;9.40;99.90;;;;;;6126212;23;20169;-90
2021/12/16 02:10:03;;;;;;;129.60;83.90;;;9.40;99.90;;;;;;6152815;23;20150;-90
2021/12/16 02:32:40;;;;;;;122.22;88.75;;;9.50;99.90;;;;;;6121363;23;20150;-90
2021/12/16 02:37:49;;;;;;;137.48;105.25;;;9.50;99.90;;;;;;6152309;23;20515;-89
2021/12/16 02:40:27;;;;;;;122.20;91.85;;;9.50;99.90;;;;;;6126646;23;20475;-89
2021/12/16 02:43:04;;;;;;;125.35;95.88;;;9.50;99.90;;;;;;6153224;23;20126;-89
2021/12/16 02:48:41;;;;;;;122.90;81.53;;;9.50;99.90;;;;;;6152952;23;20589;-89
2021/12/16 02:51:28;;;;;;;124.78;80.18;;;9.50;99.90;;;;;;6126448;23;20573;-89
2021/12/16 02:53:58;;;;;;;118.03;69.43;;;9.50;99.90;;;;;;6152752;22;20126;-90
2021/12/16 02:56:37;;;;;;;121.78;75.57;;;9.40;99.90;;;;;;6127037;23;20173;-90
2021/12/16 02:59:06;;;;;;;123.03;84.60;;;9.40;99.90;;;;;;6152804;23;20142;-89
2021/12/16 03:01:39;;;;;;;127.55;89.05;;;9.40;99.90;;;;;;6127041;23;20209;-90
2021/12/16 03:04:30;;;;;;;125.72;84.25;;;9.40;99.90;;;;;;6152535;22;20181;-90
2021/12/16 03:07:05;;;;;;;121.47;83.35;;;9.40;99.90;;;;;;6123637;23;20197;-89
2021/12/16 03:10:17;;;;;;;130.85;87.68;;;9.40;99.90;;;;;;6126169;23;20142;-89
2021/12/16 03:13:05;;;;;;;122.88;82.72;;;9.40;99.90;;;;;;6151398;23;20150;-90
2021/12/16 03:16:06;;;;;;;124.68;83.85;;;9.40;99.90;;;;;;6126092;23;20611;-89
2021/12/16 03:21:29;;;;;;;121.65;70.82;;;9.30;99.90;;;;;;6152471;23;20476;-90
2021/12/16 03:36:03;;;;;;;126.07;91.88;;;9.20;99.90;;;;;;6154311;23;20189;-90
2021/12/16 03:38:46;;;;;;;122.00;81.93;;;9.20;99.90;;;;;;6152378;23;20177;-89
2021/12/16 03:41:12;;;;;;;120.65;76.28;;;9.20;99.90;;;;;;6127183;23;20134;-90
2021/12/16 03:44:09;;;;;;;116.68;78.15;;;9.10;99.90;;;;;;6127070;23;20153;-89
2021/12/16 03:47:05;;;;;;;121.75;77.90;;;9.10;99.90;;;;;;6152100;22;20158;-90
2021/12/16 03:49:57;;;;;;;120.40;70.68;;;9.10;99.90;;;;;;6125823;23;20153;-90
2021/12/16 03:52:36;;;;;;;125.68;80.85;;;9.10;99.90;;;;;;6126420;23;20134;-89
2021/12/16 03:55:11;;;;;;;116.45;83.10;;;9.10;99.90;;;;;;6127160;23;20138;-90
2021/12/16 03:57:56;;;;;;;141.57;104.55;;;9.20;99.90;;;;;;6125614;23;20180;-90
2021/12/16 04:00:53;;;;;;;130.18;98.15;;;9.10;99.90;;;;;;6151993;23;20130;-89
2021/12/16 04:03:38;;;;;;;126.93;93.78;;;9.10;99.90;;;;;;6152234;23;20184;-89
2021/12/16 04:06:04;;;;;;;121.22;94.63;;;9.00;99.90;;;;;;6125817;23;20197;-89
2021/12/16 04:08:30;;;;;;;130.68;102.18;;;9.00;99.90;;;;;;6126017;23;20540;-89
2021/12/16 04:11:04;;;;;;;128.00;96.90;;;9.00;99.90;;;;;;6152714;22;20170;-89
2021/12/16 04:13:35;;;;;;;129.75;102.18;;;9.00;99.90;;;;;;6125725;23;20189;-89
2021/12/16 04:16:29;;;;;;;125.65;101.88;;;9.00;99.90;;;;;;6151891;23;20169;-90
2021/12/16 04:19:05;;;;;;;128.18;98.57;;;9.00;99.90;;;;;;6115539;23;20631;-89
2021/12/16 04:21:52;;;;;;;138.45;114.82;;;9.00;99.90;;;;;;6122114;23;20149;-90
2021/12/16 04:24:27;;;;;;;128.02;98.53;;;8.90;99.90;;;;;;6125516;23;20160;-90
2021/12/16 04:26:57;;;;;;;128.95;109.93;;;8.90;99.90;;;;;;6125492;23;20176;-90
2021/12/16 04:29:29;;;;;;;135.32;113.95;;;8.90;99.90;;;;;;6125912;23;20146;-89
2021/12/16 04:31:59;;;;;;;139.30;114.93;;;8.90;99.90;;;;;;6126259;23;20191;-90
2021/12/16 04:34:28;;;;;;;151.25;119.25;;;9.00;99.90;;;;;;6152491;23;20191;-89
2021/12/16 04:37:06;;;;;;;149.65;133.75;;;9.00;99.90;;;;;;6125509;23;20182;-89
2021/12/16 04:39:46;;;;;;;154.15;137.48;;;9.10;99.90;;;;;;6126012;23;20228;-90
2021/12/16 04:42:25;;;;;;;160.23;139.38;;;9.10;99.90;;;;;;6126206;23;20145;-90
2021/12/16 04:45:06;;;;;;;136.77;119.00;;;9.10;99.90;;;;;;6125929;23;20145;-90
2021/12/16 04:47:41;;;;;;;141.25;121.55;;;9.10;99.90;;;;;;6125737;23;20169;-90
2021/12/16 04:50:30;;;;;;;134.73;112.47;;;9.00;99.90;;;;;;6126224;23;20134;-90
2021/12/16 04:58:34;;;;;;;139.23;108.90;;;9.00;99.90;;;;;;6148634;23;20527;-86
2021/12/16 05:01:43;;;;;;;140.43;123.82;;;8.90;99.90;;;;;;6125098;23;20146;-86
2021/12/16 05:10:39;;;;;;;128.68;101.88;;;8.80;99.90;;;;;;6122945;23;20158;-86
2021/12/16 05:13:50;;;;;;;122.57;87.53;;;8.70;99.90;;;;;;6098354;23;20155;-86
2021/12/16 05:17:06;;;;;;;120.80;80.80;;;8.70;99.90;;;;;;6101254;22;20758;-86
2021/12/16 05:20:29;;;;;;;135.20;98.47;;;8.50;99.90;;;;;;6127026;23;20200;-86
2021/12/16 05:27:10;;;;;;;129.98;92.13;;;8.40;99.90;;;;;;6130724;23;20239;-86
2021/12/16 05:33:49;;;;;;;135.05;109.78;;;8.30;99.90;;;;;;6151130;23;20146;-86
2021/12/16 05:40:23;;;;;;;132.40;103.90;;;8.20;99.90;;;;;;6161525;23;20141;-86
2021/12/16 05:43:22;;;;;;;131.80;107.65;;;8.30;99.90;;;;;;6125609;23;20150;-86
2021/12/16 05:52:56;;;;;;;137.73;107.15;;;8.30;99.90;;;;;;6153509;23;20238;-87
2021/12/16 05:56:49;;;;;;;;;;;;;;;;;;;;;
2021/12/16 06:03:55;;;;;;;;;;;;;;;;;;;;;
2021/12/16 06:32:55;;;;;;;125.07;97.45;;;7.90;99.90;;;;;;6182892;23;20646;-85
2021/12/16 06:38:35;;;;;;;130.98;111.25;;;7.80;99.90;;;;;;6147608;23;20662;-85
2021/12/16 06:41:33;;;;;;;;;;;;;;;;;;;;;
2021/12/16 06:48:20;;;;;;;130.52;111.65;;;7.70;99.90;;;;;;6138150;23;20227;-85
2021/12/16 06:54:22;;;;;;;128.88;111.65;;;7.50;99.90;;;;;;6152877;23;20141;-85
2021/12/16 07:00:12;;;;;;;129.80;107.70;;;7.40;99.90;;;;;;6152743;23;20213;-85
2021/12/16 07:03:18;;;;;;;129.15;112.28;;;7.30;99.90;;;;;;6126530;23;20138;-85
2021/12/16 07:06:54;;;;;;;;;;;;;;;;;;;;;
2021/12/16 07:09:39;;;;;;;127.45;103.65;;;7.20;99.90;;;;;;6043583;23;20236;-86
2021/12/16 07:12:10;;;;;;;128.88;105.75;;;7.20;99.90;;;;;;6127275;23;20154;-86
2021/12/16 07:14:39;;;;;;;134.02;119.85;;;7.20;99.90;;;;;;6152925;22;20176;-85
2021/12/16 07:17:16;;;;;;;125.63;106.05;;;7.20;99.90;;;;;;6127918;23;20189;-86
2021/12/16 07:19:47;;;;;;;130.85;116.32;;;7.10;99.90;;;;;;6128068;23;20610;-85
2021/12/16 07:22:15;;;;;;;136.23;110.65;;;7.10;99.90;;;;;;6129312;23;20209;-85
2021/12/16 07:24:41;;;;;;;122.97;107.07;;;7.10;99.90;;;;;;6129568;23;20591;-86
2021/12/16 07:27:19;;;;;;;127.50;101.70;;;7.10;99.90;;;;;;6126937;23;20173;-86
2021/12/16 07:29:48;;;;;;;143.45;128.05;;;7.10;99.90;;;;;;6127444;23;20381;-86
2021/12/16 07:32:19;;;;;;;131.63;115.97;;;7.10;99.90;;;;;;6127084;23;20521;-86
2021/12/16 07:34:55;;;;;;;;;;;;;;;;;;;;;
2021/12/16 07:37:50;;;;;;;125.80;100.57;;;7.10;99.90;;;;;;6153576;23;20956;-85
2021/12/16 07:40:22;;;;;;;128.55;114.50;;;7.10;99.90;;;;;;6128887;23;20161;-85
2021/12/16 07:43:22;;;;;;;135.80;121.00;;;7.10;99.90;;;;;;6153983;22;20129;-86
2021/12/16 07:46:38;;;;;;;129.65;111.00;;;7.10;99.90;;;;;;6127154;23;20646;-86
2021/12/16 07:49:33;;;;;;;143.55;127.85;;;7.10;99.90;;;;;;6048460;23;20194;-85
2021/12/16 07:52:04;;;;;;;130.95;105.05;;;7.10;99.90;;;;;;6126737;23;20237;-86
2021/12/16 07:54:30;;;;;;;130.23;107.15;;;7.10;99.90;;;;;;6127248;23;20176;-85
2021/12/16 07:56:58;;;;;;;130.75;115.68;;;7.10;99.90;;;;;;6133032;23;20177;-85
2021/12/16 07:59:54;;;;;;;130.40;104.13;;;7.10;99.90;;;;;;6155866;23;20146;-86
2021/12/16 08:03:00;;;;;;;132.82;118.15;;;7.10;99.90;;;;;;6126451;23;20146;-86
2021/12/16 08:08:55;;;;;;;135.25;120.75;;;7.10;99.90;;;;;;6152359;23;20146;-86
2021/12/16 08:12:12;;;;;;;130.02;110.05;;;7.10;99.90;;;;;;6123501;23;20492;-86
2021/12/16 08:14:49;;;;;;;129.73;109.53;;;7.20;99.90;;;;;;6117061;23;20154;-86
2021/12/16 08:17:25;;;;;;;135.05;120.50;;;7.30;99.90;;;;;;6127309;23;20184;-86
2021/12/16 08:20:20;;;;;;;133.85;111.07;;;7.40;99.90;;;;;;6152722;23;20130;-86
2021/12/16 08:26:17;;;;;;;;;;;;;;;;;;;;;
2021/12/16 08:28:54;;;;;;;132.85;117.35;;;7.50;99.90;;;;;;6152830;23;20217;-85
2021/12/16 08:31:36;;;;;;;128.95;107.80;;;7.50;99.90;;;;;;6125984;23;20169;-86
2021/12/16 08:34:30;;;;;;;137.98;120.50;;;7.60;99.90;;;;;;6126138;23;20522;-86
2021/12/16 08:37:39;;;;;;;143.57;128.10;;;7.70;99.90;;;;;;6125873;23;20219;-86
2021/12/16 08:40:57;;;;;;;134.27;108.70;;;7.70;99.90;;;;;;6118772;23;20538;-85
2021/12/16 08:43:26;;;;;;;127.22;96.60;;;7.60;99.90;;;;;;6118596;23;20173;-86
2021/12/16 08:45:53;;;;;;;128.77;101.90;;;7.60;99.90;;;;;;6152050;23;20166;-86
2021/12/16 08:48:31;;;;;;;135.23;107.25;;;7.60;99.90;;;;;;6125887;23;20584;-86
2021/12/16 08:51:43;;;;;;;126.68;98.43;;;7.60;99.90;;;;;;6127324;23;20156;-86
2021/12/16 08:54:37;;;;;;;126.88;96.28;;;7.60;99.90;;;;;;6125375;23;20150;-86
2021/12/16 08:57:25;;;;;;;133.80;116.80;;;7.50;99.90;;;;;;6125111;23;20178;-85
2021/12/16 09:00:00;;;;;;;124.07;101.55;;;7.60;99.90;;;;;;6127725;23;20150;-85
2021/12/16 09:02:55;;;;;;;155.20;139.63;;;7.70;99.90;;;;;;6127170;23;20150;-85
2021/12/16 09:08:55;;;;;;;140.13;125.35;;;8.00;99.90;;;;;;6152374;23;20468;-85
2021/12/16 09:12:10;;;;;;;135.77;114.95;;;8.20;99.90;;;;;;6152868;23;20130;-85
2021/12/16 09:14:56;;;;;;;134.57;118.80;;;8.20;99.90;;;;;;6125749;23;20225;-85
2021/12/16 09:21:05;;;;;;;133.73;109.70;;;8.30;99.90;;;;;;6151494;23;20642;-86
2021/12/16 09:27:04;;;;;;;138.63;104.25;;;8.50;99.90;;;;;;6160014;23;20295;-85
2021/12/16 09:29:30;;;;;;;135.35;101.00;;;8.60;99.90;;;;;;6137131;23;20205;-86
2021/12/16 09:31:58;;;;;;;144.90;115.27;;;8.70;99.90;;;;;;6135853;23;20662;-86
2021/12/16 09:34:24;;;;;;;134.85;110.50;;;8.70;99.90;;;;;;6162331;23;20764;-86
2021/12/16 09:45:13;;;;;;;;;;;;;;;;;;;;;
2021/12/16 09:47:50;;;;;;;135.32;99.85;;;9.00;99.90;;;;;;6034397;23;20286;-86
2021/12/16 09:50:39;;;;;;;146.02;116.60;;;9.10;99.90;;;;;;6062590;23;20132;-85
2021/12/16 09:53:09;;;;;;;139.82;120.75;;;9.10;99.90;;;;;;6038451;23;20148;-86
2021/12/16 09:56:04;;;;;;;139.40;105.13;;;9.10;99.90;;;;;;6062503;23;20478;-86
2021/12/16 09:59:04;;;;;;;;;;;;;;;;;;;;;
2021/12/16 10:02:09;;;;;;;144.75;109.82;;;9.30;99.90;;;;;;6127108;23;20214;-86
2021/12/16 10:08:52;;;;;;;147.07;112.78;;;9.30;99.90;;;;;;6155649;23;20150;-86
2021/12/16 10:11:39;;;;;;;143.02;99.18;;;9.40;99.90;;;;;;6157621;23;20516;-86
2021/12/16 10:17:50;;;;;;;138.18;106.40;;;9.50;99.90;;;;;;6120517;23;20695;-86
2021/12/16 10:24:06;;;;;;;140.65;109.93;;;9.60;99.90;;;;;;6091395;23;20143;-86
2021/12/16 10:30:04;;;;;;;145.38;114.63;;;9.80;99.90;;;;;;6153917;23;20229;-86
2021/12/16 10:33:04;;;;;;;;;;;;;;;;;;;;;
2021/12/16 10:36:00;;;;;;;140.52;114.55;;;10.00;99.90;;;;;;6153335;23;20526;-86
2021/12/16 10:38:38;;;;;;;140.60;110.88;;;10.10;99.90;;;;;;6127134;23;20261;-86
2021/12/16 10:41:23;;;;;;;136.75;121.53;;;10.20;99.90;;;;;;6126620;23;20157;-86
2021/12/16 10:44:15;;;;;;;147.45;125.60;;;10.30;99.90;;;;;;6130364;23;20150;-86
2021/12/16 10:50:33;;;;;;;140.13;109.72;;;10.30;99.90;;;;;;6153605;22;20146;-86
2021/12/16 10:59:58;;;;;;;127.47;75.65;;;10.50;99.90;;;;;;6034207;23;20503;-90
2021/12/16 11:10:25;;;;;;;127.05;78.70;;;10.60;99.90;;;;;;6019649;23;20241;-90
2021/12/16 11:13:38;;;;;;;128.07;66.85;;;10.60;99.90;;;;;;5899185;24;20162;-90
2021/12/16 11:23:22;;;;;;;129.75;92.47;;;10.70;99.90;;;;;;5897371;24;20156;-89
2021/12/16 11:25:52;;;;;;;140.70;116.65;;;10.70;99.90;;;;;;5921938;24;20234;-89
2021/12/16 11:28:36;;;;;;;153.00;136.43;;;10.80;99.90;;;;;;6054800;23;20150;-90
2021/12/16 11:31:52;;;;;;;149.45;133.70;;;10.90;99.90;;;;;;6126595;23;20295;-89
2021/12/16 11:42:13;;;;;;;169.35;152.02;;;10.90;99.90;;;;;;6063850;23;20498;-89
2021/12/16 11:45:16;;;;;;;;;;;;;;;;;;;;;
2021/12/16 11:47:55;;;;;;;146.68;129.05;;;10.80;99.90;;;;;;6141968;23;20296;-87
2021/12/16 11:50:53;;;;;;;168.32;151.93;;;10.90;99.90;;;;;;6126219;23;20221;-88
2021/12/16 11:53:45;;;;;;;149.85;133.60;;;10.80;99.90;;;;;;6153232;23;20149;-90
2021/12/16 11:56:50;;;;;;;144.07;117.75;;;10.80;99.90;;;;;;6152993;23;20607;-90
2021/12/16 12:00:10;;;;;;;136.13;107.80;;;10.90;99.90;;;;;;6153527;23;20134;-90
2021/12/16 12:02:51;;;;;;;133.05;105.82;;;10.90;99.90;;;;;;6141035;23;20142;-90
2021/12/16 12:11:48;;;;;;;148.43;124.00;;;10.80;99.90;;;;;;6006135;23;20153;-89
2021/12/16 12:14:17;;;;;;;150.88;134.70;;;10.90;99.90;;;;;;6051416;23;20152;-89
2021/12/16 12:17:24;;;;;;;172.98;154.70;;;10.80;99.90;;;;;;6110210;23;20219;-89
2021/12/16 12:20:01;;;;;;;161.80;144.13;;;10.80;99.90;;;;;;6062759;23;20160;-89
2021/12/16 12:22:57;;;;;;;179.68;161.23;;;10.80;99.90;;;;;;6110820;23;20150;-89
2021/12/16 12:27:53;;;;;;;194.32;175.88;;;10.80;99.90;;;;;;6149702;23;20206;-89
2021/12/16 12:30:48;;;;;;;153.63;132.02;;;10.80;99.90;;;;;;6151909;23;20169;-88
2021/12/16 12:33:33;;;;;;;151.68;125.88;;;10.90;99.90;;;;;;6038247;23;20148;-88
2021/12/16 12:36:13;;;;;;;154.73;132.38;;;10.80;99.90;;;;;;6120466;23;20197;-89
2021/12/16 12:39:08;;;;;;;;;;;;;;;;;;;;;
2021/12/16 12:42:14;;;;;;;196.95;177.93;;;10.90;99.90;;;;;;6152922;23;20232;-89
2021/12/16 12:45:12;;;;;;;;;;;;;;;;;;;;;
2021/12/16 12:48:24;;;;;;;129.35;80.30;;;11.00;99.90;;;;;;6152881;23;20241;-89
2021/12/16 12:51:04;;;;;;;;;;;;;;;;;;;;;
2021/12/16 12:53:54;;;;;;;130.38;79.75;;;11.00;99.90;;;;;;6152258;23;20224;-89
2021/12/16 12:56:33;;;;;;;132.45;92.45;;;11.00;99.90;;;;;;6155863;23;20158;-86
2021/12/16 12:59:12;;;;;;;136.00;99.38;;;11.00;99.90;;;;;;6128635;23;20202;-89
2021/12/16 13:02:01;;;;;;;152.35;125.32;;;11.00;99.90;;;;;;6126116;23;20146;-88
2021/12/16 13:04:36;;;;;;;134.57;89.70;;;11.00;99.90;;;;;;6126916;23;20197;-89
2021/12/16 13:07:13;;;;;;;130.95;74.47;;;11.00;99.90;;;;;;6151587;23;20223;-89
2021/12/16 13:10:08;;;;;;;132.13;82.00;;;11.10;99.90;;;;;;6152962;23;20589;-88
2021/12/16 13:13:16;;;;;;;129.90;72.72;;;11.10;99.90;;;;;;6152281;23;20205;-89
2021/12/16 13:27:46;;;;;;;113.90;45.17;;;11.20;99.90;;;;;;6153766;23;20185;-89
2021/12/16 13:33:51;;;;;;;115.45;45.55;;;11.20;99.90;;;;;;6148616;23;20173;-89
2021/12/16 13:36:50;;;;;;;119.75;40.28;;;11.20;99.90;;;;;;6127717;23;20611;-88
2021/12/16 13:39:54;;;;;;;114.30;43.67;;;11.10;99.90;;;;;;6129490;23;20236;-88
2021/12/16 13:46:10;;;;;;;116.18;49.92;;;11.10;99.90;;;;;;6141065;23;20220;-88
2021/12/16 13:58:28;;;;;;;116.97;49.10;;;11.00;99.90;;;;;;6152612;23;20173;-88
2021/12/16 14:01:53;;;;;;;120.35;51.90;;;11.00;99.90;;;;;;6153028;23;20610;-88
2021/12/16 14:07:40;;;;;;;137.57;75.05;;;11.00;99.90;;;;;;6152738;23;20166;-88
2021/12/16 14:10:36;;;;;;;121.15;60.67;;;10.90;99.90;;;;;;6125821;23;20200;-88
2021/12/16 14:16:26;;;;;;;143.45;101.55;;;10.80;99.90;;;;;;6152963;22;20170;-89
2021/12/16 14:41:03;;;;;;;189.05;169.00;;;10.70;99.90;;;;;;6134678;23;20150;-88
2021/12/16 14:49:48;;;;;;;181.90;163.65;;;10.60;99.90;;;;;;5949605;24;20161;-88
2021/12/16 14:52:25;;;;;;;193.63;175.52;;;10.60;99.90;;;;;;6119124;23;20150;-89
2021/12/16 14:55:18;;;;;;;195.88;176.48;;;10.60;99.90;;;;;;6125609;23;20149;-89
2021/12/16 14:58:38;;;;;;;226.23;205.43;;;10.60;99.90;;;;;;6125439;23;20638;-88
2021/12/16 15:01:15;;;;;;;162.80;145.73;;;10.60;99.90;;;;;;6152896;23;20188;-88
2021/12/16 15:04:23;;;;;;;182.50;164.70;;;10.60;99.90;;;;;;6151842;23;20131;-88
2021/12/16 15:07:21;;;;;;;205.40;185.93;;;10.60;99.90;;;;;;6125921;23;20480;-88
2021/12/16 15:10:28;;;;;;;192.00;173.50;;;10.50;99.90;;;;;;6135396;23;20146;-89
2021/12/16 15:35:51;;;;;;;189.85;172.13;;;10.40;99.90;;;;;;6085104;23;20485;-88
2021/12/16 15:46:21;;;;;;;198.70;180.13;;;10.40;99.90;;;;;;6118642;23;20311;-88
2021/12/16 15:49:09;;;;;;;196.90;178.25;;;10.40;99.90;;;;;;6126935;23;20241;-89
2021/12/16 15:52:02;;;;;;;194.15;175.80;;;10.30;99.90;;;;;;6153217;23;20556;-88
2021/12/16 15:57:47;;;;;;;;;;;;;;;;;;;;;
2021/12/16 16:08:23;;;;;;;163.75;138.73;;;10.20;99.90;;;;;;6014169;23;20189;-89
2021/12/16 16:11:18;;;;;;;176.57;159.00;;;10.20;99.90;;;;;;6039844;23;20626;-90
2021/12/16 16:20:49;;;;;;;156.75;126.45;;;10.20;99.90;;;;;;6040547;23;20148;-90
2021/12/16 16:23:30;;;;;;;147.32;115.72;;;10.20;99.90;;;;;;6039370;23;20235;-90
2021/12/16 16:44:34;;;;;;;145.48;115.40;;;10.20;99.90;;;;;;6147317;23;20247;-89
2021/12/16 16:48:39;;;;;;;;;;;;;;;;;;;;;
2021/12/16 18:29:02;;;;;;;156.07;94.60;;;10.00;99.90;;;;;;6145475;23;20627;-86
2021/12/16 18:42:04;;;;;;;148.02;86.03;;;10.00;99.90;;;;;;6062676;23;20175;-86
2021/12/16 19:01:26;;;;;;;;;;;;;;;;;;;;;
2021/12/16 22:04:00;;;;;;;;;;;;;;;;;;;;;
2021/12/16 22:12:33;;;;;;;177.70;158.27;;;9.60;99.90;;;;;;6148084;23;20204;-86
2021/12/16 22:59:56;;;;;;;163.98;146.57;;;9.60;99.90;;;;;;6067063;23;20171;-83
2021/12/16 23:02:58;;;;;;;160.38;135.20;;;9.60;99.90;;;;;;6069477;23;20192;-85
2021/12/16 23:05:38;;;;;;;149.23;131.35;;;9.60;99.90;;;;;;6069199;23;20454;-83
2021/12/16 23:08:18;;;;;;;147.05;121.53;;;9.60;99.90;;;;;;6069030;23;20501;-84
2021/12/16 23:10:52;;;;;;;144.95;123.13;;;9.60;99.90;;;;;;6043950;23;20171;-83
2021/12/16 23:13:26;;;;;;;155.82;132.45;;;9.50;99.90;;;;;;6071774;23;20152;-83
2021/12/16 23:24:43;;;;;;;168.48;140.15;;;9.50;99.90;;;;;;6069543;23;20159;-83
2021/12/16 23:27:12;;;;;;;139.02;114.03;;;9.50;99.90;;;;;;6069102;23;20170;-83
2021/12/16 23:29:43;;;;;;;152.75;130.80;;;9.50;99.90;;;;;;6069744;23;20578;-83
2021/12/16 23:32:09;;;;;;;159.00;141.63;;;9.50;99.90;;;;;;6070436;23;20131;-83
2021/12/16 23:34:42;;;;;;;156.85;136.32;;;9.50;99.90;;;;;;6068335;23;20152;-83
2021/12/16 23:37:08;;;;;;;151.68;135.75;;;9.50;99.90;;;;;;6069820;23;20540;-83
2021/12/16 23:39:38;;;;;;;159.77;142.73;;;9.50;99.90;;;;;;6069546;23;20172;-83
2021/12/16 23:53:21;;;;;;;146.80;120.93;;;9.50;99.90;;;;;;6070324;23;20144;-83
2021/12/16 23:55:53;;;;;;;173.95;156.38;;;9.50;99.90;;;;;;6069233;23;20290;-83
2021/12/16 23:58:22;;;;;;;153.68;132.75;;;9.50;99.90;;;;;;6069501;23;20541;-83
